createdAt,value
2023-03-29T00:01:38.382Z,70
2023-03-29T00:03:18.122Z,69
2023-03-29T00:04:57.903Z,69
2023-03-29T00:06:37.665Z,69
2023-03-29T00:08:17.467Z,69
2023-03-29T00:09:57.208Z,69
2023-03-29T00:11:36.965Z,69
2023-03-29T00:13:16.745Z,69
2023-03-29T00:14:56.511Z,69
2023-03-29T00:16:36.270Z,69
2023-03-29T00:18:16.054Z,69
2023-03-29T00:19:55.811Z,69
2023-03-29T00:21:35.578Z,69
2023-03-29T00:23:15.332Z,69
2023-03-29T00:24:55.111Z,69
2023-03-29T00:26:34.878Z,69
2023-03-29T00:28:14.645Z,69
2023-03-29T00:29:54.463Z,69
2023-03-29T00:31:34.180Z,68
2023-03-29T00:33:13.965Z,69
2023-03-29T00:34:53.721Z,69
2023-03-29T00:36:33.484Z,68
2023-03-29T00:38:13.248Z,68
2023-03-29T00:39:53.026Z,68
2023-03-29T00:41:32.782Z,68
2023-03-29T00:43:12.571Z,68
2023-03-29T00:44:52.315Z,68
2023-03-29T00:46:32.092Z,68
2023-03-29T00:48:11.893Z,68
2023-03-29T00:49:51.621Z,67
2023-03-29T00:51:31.386Z,67
2023-03-29T00:53:11.162Z,67
2023-03-29T00:54:50.918Z,68
2023-03-29T00:56:30.684Z,68
2023-03-29T00:58:10.450Z,67
2023-03-29T00:59:50.225Z,67
2023-03-29T01:01:29.979Z,67
2023-03-29T01:03:09.754Z,67
2023-03-29T01:04:49.521Z,67
2023-03-29T01:06:29.300Z,67
2023-03-29T01:08:09.055Z,67
2023-03-29T01:09:48.827Z,67
2023-03-29T01:11:28.620Z,67
2023-03-29T01:13:08.364Z,67
2023-03-29T01:14:48.188Z,67
2023-03-29T01:16:27.901Z,67
2023-03-29T01:18:07.660Z,66
2023-03-29T01:19:47.447Z,67
2023-03-29T01:21:27.217Z,66
2023-03-29T01:23:06.987Z,65
2023-03-29T01:24:46.731Z,67
2023-03-29T01:26:26.521Z,66
2023-03-29T01:28:06.280Z,66
2023-03-29T01:29:46.043Z,66
2023-03-29T01:31:25.813Z,65
2023-03-29T01:33:05.562Z,67
2023-03-29T01:34:45.336Z,66
2023-03-29T01:36:25.122Z,63
2023-03-29T01:38:04.876Z,65
2023-03-29T01:39:44.632Z,66
2023-03-29T01:41:24.417Z,65
2023-03-29T01:43:04.179Z,65
2023-03-29T01:44:43.943Z,64
2023-03-29T01:46:23.747Z,64
2023-03-29T01:48:03.516Z,64
2023-03-29T01:49:43.240Z,63
2023-03-29T01:51:23.009Z,63
2023-03-29T01:53:02.787Z,64
2023-03-29T01:54:42.550Z,64
2023-03-29T01:56:22.318Z,64
2023-03-29T01:58:02.081Z,64
2023-03-29T01:59:41.841Z,64
2023-03-29T02:01:21.626Z,64
2023-03-29T02:03:01.377Z,64
2023-03-29T02:04:41.139Z,64
2023-03-29T02:06:20.927Z,65
2023-03-29T02:08:00.682Z,64
2023-03-29T02:09:40.448Z,65
2023-03-29T02:11:20.230Z,65
2023-03-29T02:12:59.998Z,65
2023-03-29T02:14:39.746Z,65
2023-03-29T02:16:19.527Z,65
2023-03-29T02:17:59.285Z,63
2023-03-29T02:19:39.058Z,65
2023-03-29T02:21:18.818Z,65
2023-03-29T02:22:58.584Z,65
2023-03-29T02:24:38.338Z,65
2023-03-29T02:26:18.123Z,64
2023-03-29T02:27:57.886Z,64
2023-03-29T02:29:37.650Z,64
2023-03-29T02:31:17.430Z,64
2023-03-29T02:32:57.184Z,62
2023-03-29T02:34:36.951Z,62
2023-03-29T02:36:16.719Z,62
2023-03-29T02:37:56.494Z,64
2023-03-29T02:39:36.277Z,64
2023-03-29T02:41:16.023Z,64
2023-03-29T02:42:55.784Z,64
2023-03-29T02:44:35.573Z,63
2023-03-29T02:46:15.322Z,63
2023-03-29T02:47:55.101Z,64
2023-03-29T02:49:34.873Z,64
2023-03-29T02:51:14.634Z,64
2023-03-29T02:52:54.425Z,62
2023-03-29T02:54:34.168Z,63
2023-03-29T02:56:13.927Z,63
2023-03-29T02:57:53.700Z,64
2023-03-29T02:59:33.472Z,64
2023-03-29T03:01:13.239Z,64
2023-03-29T03:02:53.028Z,64
2023-03-29T03:04:32.765Z,63
2023-03-29T03:06:12.545Z,63
2023-03-29T03:07:52.302Z,63
2023-03-29T03:09:32.094Z,62
2023-03-29T03:11:11.847Z,62
2023-03-29T03:12:51.598Z,61
2023-03-29T03:14:31.377Z,63
2023-03-29T03:16:11.145Z,63
2023-03-29T03:17:50.908Z,63
2023-03-29T03:19:30.693Z,64
2023-03-29T03:21:10.436Z,63
2023-03-29T03:22:50.247Z,64
2023-03-29T03:24:29.971Z,63
2023-03-29T03:26:09.746Z,62
2023-03-29T03:27:49.498Z,62
2023-03-29T03:29:29.273Z,62
2023-03-29T03:31:09.046Z,63
2023-03-29T03:32:48.809Z,63
2023-03-29T03:34:28.573Z,63
2023-03-29T03:36:08.334Z,62
2023-03-29T03:37:48.163Z,62
2023-03-29T03:39:27.882Z,62
2023-03-29T03:41:07.646Z,61
2023-03-29T03:42:47.402Z,61
2023-03-29T03:44:27.182Z,62
2023-03-29T03:46:06.944Z,63
2023-03-29T03:47:46.712Z,63
2023-03-29T03:49:26.477Z,62
2023-03-29T03:51:06.237Z,63
2023-03-29T03:52:45.993Z,62
2023-03-29T03:54:25.750Z,61
2023-03-29T03:56:05.525Z,62
2023-03-29T03:57:45.290Z,62
2023-03-29T03:59:25.057Z,61
2023-03-29T04:01:04.823Z,61
2023-03-29T04:02:44.564Z,60
2023-03-29T04:04:24.339Z,60
2023-03-29T04:06:04.115Z,60
2023-03-29T04:07:43.881Z,62
2023-03-29T04:09:23.656Z,62
2023-03-29T04:11:03.437Z,60
2023-03-29T04:12:43.175Z,59
2023-03-29T04:14:22.938Z,61
2023-03-29T04:16:02.723Z,60
2023-03-29T04:17:42.470Z,61
2023-03-29T04:19:22.207Z,61
2023-03-29T04:21:02.002Z,59
2023-03-29T04:22:41.787Z,59
2023-03-29T04:24:21.512Z,59
2023-03-29T04:26:01.284Z,60
2023-03-29T04:27:41.056Z,59
2023-03-29T04:29:20.810Z,60
2023-03-29T04:31:00.580Z,61
2023-03-29T04:32:40.360Z,60
2023-03-29T04:34:20.111Z,62
2023-03-29T04:35:59.877Z,61
2023-03-29T04:37:39.631Z,60
2023-03-29T04:39:19.399Z,62
2023-03-29T04:40:59.168Z,61
2023-03-29T04:42:38.935Z,62
2023-03-29T04:44:18.716Z,60
2023-03-29T04:45:58.463Z,62
2023-03-29T04:47:38.237Z,61
2023-03-29T04:49:17.981Z,61
2023-03-29T04:50:57.745Z,59
2023-03-29T04:52:37.514Z,59
2023-03-29T04:54:17.286Z,60
2023-03-29T04:55:57.047Z,59
2023-03-29T04:57:36.809Z,58
2023-03-29T04:59:16.592Z,56
2023-03-29T05:00:56.349Z,53
2023-03-29T05:02:36.107Z,49
2023-03-29T05:04:15.870Z,44
2023-03-29T05:05:55.650Z,39
2023-03-29T05:07:35.391Z,33
2023-03-29T05:09:15.155Z,27
2023-03-29T05:10:54.957Z,27
2023-03-29T05:12:34.682Z,27
2023-03-29T05:14:14.441Z,27
2023-03-29T05:15:54.215Z,28
2023-03-29T05:17:33.984Z,28
2023-03-29T05:19:13.749Z,28
2023-03-29T05:20:53.522Z,29
2023-03-29T05:22:33.291Z,29
2023-03-29T05:24:13.066Z,30
2023-03-29T05:25:52.820Z,30
2023-03-29T05:27:32.596Z,31
2023-03-29T05:29:12.366Z,33
2023-03-29T05:30:52.150Z,33
2023-03-29T05:32:31.900Z,34
2023-03-29T05:34:11.678Z,34
2023-03-29T05:35:51.454Z,35
2023-03-29T05:37:31.222Z,35
2023-03-29T05:39:10.998Z,36
2023-03-29T05:40:50.748Z,37
2023-03-29T05:42:30.526Z,37
2023-03-29T05:44:10.295Z,38
2023-03-29T05:45:50.073Z,39
2023-03-29T05:47:29.831Z,40
2023-03-29T05:49:09.618Z,41
2023-03-29T05:50:49.432Z,42
2023-03-29T05:52:29.145Z,43
2023-03-29T05:54:08.912Z,44
2023-03-29T05:55:48.678Z,45
2023-03-29T05:57:28.445Z,46
2023-03-29T05:59:08.226Z,48
2023-03-29T06:00:48.002Z,50
2023-03-29T06:02:27.781Z,52
2023-03-29T06:04:07.531Z,53
2023-03-29T06:05:47.316Z,55
2023-03-29T06:07:27.069Z,57
2023-03-29T06:09:06.853Z,58
2023-03-29T06:10:46.630Z,60
2023-03-29T06:12:26.393Z,62
2023-03-29T06:14:06.165Z,63
2023-03-29T06:15:45.946Z,65
2023-03-29T06:17:25.748Z,67
2023-03-29T06:19:05.478Z,69
2023-03-29T06:20:45.249Z,71
2023-03-29T06:22:25.017Z,73
2023-03-29T06:24:04.768Z,75
2023-03-29T06:25:44.548Z,77
2023-03-29T06:27:24.315Z,79
2023-03-29T06:29:04.100Z,81
2023-03-29T06:30:43.849Z,87
2023-03-29T06:32:23.641Z,91
2023-03-29T06:34:03.398Z,91
2023-03-29T06:35:43.179Z,91
2023-03-29T06:37:22.986Z,91
2023-03-29T06:39:02.708Z,91
2023-03-29T06:40:42.514Z,91
2023-03-29T06:42:22.282Z,91
2023-03-29T06:44:02.025Z,92
2023-03-29T06:45:41.813Z,92
2023-03-29T06:47:21.564Z,92
2023-03-29T06:49:01.331Z,92
2023-03-29T06:50:41.108Z,92
2023-03-29T06:52:20.908Z,92
2023-03-29T06:54:00.672Z,92
2023-03-29T06:55:40.417Z,92
2023-03-29T06:57:20.181Z,92
2023-03-29T06:58:59.959Z,92
2023-03-29T07:00:39.736Z,93
2023-03-29T07:02:19.541Z,93
2023-03-29T07:03:59.304Z,93
2023-03-29T07:05:39.035Z,93
2023-03-29T07:07:18.806Z,93
2023-03-29T07:08:58.566Z,93
2023-03-29T07:10:38.352Z,93
2023-03-29T07:12:18.116Z,93
2023-03-29T07:13:57.896Z,93
2023-03-29T07:15:37.681Z,94
2023-03-29T07:17:17.442Z,94
2023-03-29T07:18:57.196Z,94
2023-03-29T07:20:37.010Z,94
2023-03-29T07:22:16.779Z,94
2023-03-29T07:23:56.504Z,94
2023-03-29T07:25:36.334Z,94
2023-03-29T07:27:16.042Z,94
2023-03-29T07:28:55.818Z,94
2023-03-29T07:30:35.600Z,94
2023-03-29T07:32:15.366Z,94
2023-03-29T07:33:55.143Z,94
2023-03-29T07:35:34.892Z,94
2023-03-29T07:37:14.666Z,94
2023-03-29T07:38:54.429Z,95
2023-03-29T07:40:34.217Z,95
2023-03-29T07:42:13.967Z,95
2023-03-29T07:43:53.735Z,95
2023-03-29T07:45:33.507Z,95
2023-03-29T07:47:13.288Z,95
2023-03-29T07:48:53.069Z,95
2023-03-29T07:50:32.833Z,95
2023-03-29T07:52:12.594Z,96
2023-03-29T07:53:52.367Z,96
2023-03-29T07:55:32.128Z,96
2023-03-29T07:57:11.907Z,96
2023-03-29T07:58:51.690Z,95
2023-03-29T08:00:31.457Z,96
2023-03-29T08:02:11.214Z,96
2023-03-29T08:03:50.980Z,96
2023-03-29T08:05:30.748Z,96
2023-03-29T08:07:10.524Z,96
2023-03-29T08:08:50.293Z,96
2023-03-29T08:10:30.081Z,96
2023-03-29T08:12:09.835Z,97
2023-03-29T08:13:49.614Z,97
2023-03-29T08:15:29.377Z,97
2023-03-29T08:17:09.156Z,97
2023-03-29T08:18:48.918Z,97
2023-03-29T08:20:28.719Z,97
2023-03-29T08:22:08.462Z,97
2023-03-29T08:23:48.215Z,97
2023-03-29T08:25:28.003Z,97
2023-03-29T08:27:07.768Z,97
2023-03-29T08:28:47.545Z,97
2023-03-29T08:30:27.315Z,97
2023-03-29T08:32:07.081Z,98
2023-03-29T08:33:46.848Z,98
2023-03-29T08:35:26.629Z,98
2023-03-29T08:37:06.402Z,98
2023-03-29T08:38:46.157Z,98
2023-03-29T08:40:25.932Z,98
2023-03-29T08:42:05.744Z,98
2023-03-29T08:43:45.460Z,98
2023-03-29T08:45:25.251Z,98
2023-03-29T08:47:05.002Z,98
2023-03-29T08:48:44.780Z,98
2023-03-29T08:50:24.551Z,99
2023-03-29T08:52:04.333Z,99
2023-03-29T08:53:44.078Z,99
2023-03-29T08:55:23.859Z,99
2023-03-29T08:57:03.677Z,99
2023-03-29T08:58:43.410Z,99
2023-03-29T09:00:23.182Z,99
2023-03-29T09:02:02.940Z,99
2023-03-29T09:03:42.714Z,99
2023-03-29T09:05:22.473Z,100
2023-03-29T09:07:02.250Z,100
2023-03-29T09:08:42.040Z,100
2023-03-29T09:10:21.800Z,100
2023-03-29T09:12:01.571Z,100
2023-03-29T09:13:41.334Z,100
2023-03-29T09:15:21.130Z,100
2023-03-29T09:17:00.862Z,100
2023-03-29T09:18:40.641Z,100
2023-03-29T09:20:20.405Z,100
2023-03-29T09:22:00.182Z,100
2023-03-29T09:23:39.950Z,100
2023-03-29T09:25:19.737Z,100
2023-03-29T09:26:59.492Z,100
2023-03-29T09:28:39.254Z,100
2023-03-29T09:30:19.043Z,100
2023-03-29T09:31:58.800Z,100
2023-03-29T09:33:38.665Z,100
2023-03-29T09:35:18.328Z,100
2023-03-29T09:36:58.106Z,100
2023-03-29T09:38:37.899Z,100
2023-03-29T09:40:17.648Z,100
2023-03-29T09:41:57.407Z,100
2023-03-29T09:43:37.177Z,100
2023-03-29T09:45:16.957Z,100
2023-03-29T09:46:56.831Z,100
2023-03-29T09:48:36.485Z,100
2023-03-29T09:50:16.292Z,100
2023-03-29T09:51:56.020Z,100
2023-03-29T09:53:35.794Z,100
2023-03-29T09:55:15.572Z,100
2023-03-29T09:56:55.331Z,100
2023-03-29T09:58:35.104Z,100
2023-03-29T10:00:14.880Z,100
2023-03-29T10:01:54.656Z,100
2023-03-29T10:03:34.430Z,100
2023-03-29T10:05:14.210Z,100
2023-03-29T10:06:53.969Z,100
2023-03-29T10:08:33.716Z,100
2023-03-29T10:10:13.573Z,100
2023-03-29T10:11:53.265Z,100
2023-03-29T10:13:33.053Z,100
2023-03-29T10:15:12.817Z,100
2023-03-29T10:16:52.609Z,100
2023-03-29T10:18:32.345Z,100
2023-03-29T10:20:12.120Z,100
2023-03-29T10:21:51.898Z,100
2023-03-29T10:23:31.668Z,100
2023-03-29T10:25:11.446Z,100
2023-03-29T10:26:51.207Z,100
2023-03-29T10:28:30.975Z,100
2023-03-29T10:30:10.750Z,100
2023-03-29T10:31:50.513Z,100
2023-03-29T10:33:30.282Z,100
2023-03-29T10:35:10.071Z,100
2023-03-29T10:36:49.821Z,100
2023-03-29T10:38:29.594Z,100
2023-03-29T10:40:09.372Z,100
2023-03-29T10:41:49.135Z,100
2023-03-29T10:43:28.965Z,100
2023-03-29T10:45:08.699Z,100
2023-03-29T10:46:48.448Z,100
2023-03-29T10:48:28.233Z,100
2023-03-29T10:50:08.010Z,100
2023-03-29T10:51:47.761Z,100
2023-03-29T10:53:27.532Z,100
2023-03-29T10:55:07.301Z,100
2023-03-29T10:56:47.069Z,100
2023-03-29T10:58:26.847Z,100
2023-03-29T11:00:06.621Z,100
2023-03-29T11:01:46.367Z,100
2023-03-29T11:03:26.147Z,100
2023-03-29T11:05:05.924Z,100
2023-03-29T11:06:45.684Z,100
2023-03-29T11:08:25.457Z,100
2023-03-29T11:10:05.243Z,100
2023-03-29T11:11:44.994Z,100
2023-03-29T11:13:24.774Z,100
2023-03-29T11:15:04.533Z,100
2023-03-29T11:16:44.304Z,100
2023-03-29T11:18:24.079Z,100
2023-03-29T11:20:03.845Z,100
2023-03-29T11:21:43.610Z,100
2023-03-29T11:23:23.384Z,100
2023-03-29T11:25:03.151Z,100
2023-03-29T11:26:42.930Z,100
2023-03-29T11:28:22.768Z,100
2023-03-29T11:30:02.497Z,100
2023-03-29T11:31:42.247Z,100
2023-03-29T11:33:22.010Z,100
2023-03-29T11:35:01.772Z,100
2023-03-29T11:36:41.650Z,100
2023-03-29T11:38:21.334Z,100
2023-03-29T11:40:01.084Z,100
2023-03-29T11:41:40.865Z,100
2023-03-29T11:43:20.628Z,100
2023-03-29T11:45:00.442Z,100
2023-03-29T11:46:40.189Z,100
2023-03-29T11:48:19.946Z,100
2023-03-29T11:49:59.737Z,100
2023-03-29T11:51:39.494Z,100
2023-03-29T11:53:19.265Z,100
2023-03-29T11:54:59.042Z,100
2023-03-29T11:56:38.798Z,100
2023-03-29T11:58:18.559Z,100
2023-03-29T11:59:58.329Z,100
2023-03-29T12:01:38.108Z,100
2023-03-29T12:03:17.872Z,100
2023-03-29T12:04:57.642Z,100
2023-03-29T12:06:37.430Z,100
2023-03-29T12:08:17.179Z,100
2023-03-29T12:09:56.987Z,100
2023-03-29T12:11:36.732Z,100
2023-03-29T12:13:16.502Z,100
2023-03-29T12:14:56.260Z,100
2023-03-29T12:16:36.026Z,100
2023-03-29T12:18:15.808Z,100
2023-03-29T12:19:55.577Z,100
2023-03-29T12:21:35.338Z,100
2023-03-29T12:23:15.121Z,100
2023-03-29T12:24:55.032Z,100
2023-03-29T12:26:34.662Z,100
2023-03-29T12:28:14.418Z,100
2023-03-29T12:29:54.215Z,100
2023-03-29T12:31:33.974Z,100
2023-03-29T12:33:13.741Z,100
2023-03-29T12:34:53.492Z,100
2023-03-29T12:36:33.296Z,100
2023-03-29T12:38:13.059Z,100
2023-03-29T12:39:52.813Z,100
2023-03-29T12:41:32.585Z,100
2023-03-29T12:43:12.358Z,100
2023-03-29T12:44:52.143Z,100
2023-03-29T12:46:31.907Z,100
2023-03-29T12:48:11.687Z,100
2023-03-29T12:49:51.456Z,100
2023-03-29T12:51:31.209Z,100
2023-03-29T12:53:11.008Z,100
2023-03-29T12:54:50.753Z,100
2023-03-29T12:56:30.544Z,100
2023-03-29T12:58:10.301Z,100
2023-03-29T12:59:50.080Z,100
2023-03-29T13:01:29.864Z,100
2023-03-29T13:03:09.606Z,100
2023-03-29T13:04:49.373Z,100
2023-03-29T13:06:29.129Z,100
2023-03-29T13:08:08.921Z,100
2023-03-29T13:09:48.697Z,100
2023-03-29T13:11:28.449Z,100
2023-03-29T13:13:08.230Z,100
2023-03-29T13:14:47.991Z,100
2023-03-29T13:16:27.776Z,100
2023-03-29T13:18:07.538Z,100
2023-03-29T13:19:47.324Z,100
2023-03-29T13:21:27.069Z,100
2023-03-29T13:23:06.854Z,100
2023-03-29T13:24:46.612Z,100
2023-03-29T13:26:26.387Z,100
2023-03-29T13:28:06.160Z,100
2023-03-29T13:29:45.934Z,100
2023-03-29T13:31:25.706Z,100
2023-03-29T13:33:05.475Z,100
2023-03-29T13:34:45.239Z,100
2023-03-29T13:36:25.005Z,100
2023-03-29T13:38:04.770Z,100
2023-03-29T13:39:44.535Z,100
2023-03-29T13:41:24.321Z,100
2023-03-29T13:43:04.090Z,100
2023-03-29T13:44:43.865Z,100
2023-03-29T13:46:23.622Z,100
2023-03-29T13:48:03.401Z,100
2023-03-29T13:49:43.160Z,100
2023-03-29T13:51:22.938Z,100
2023-03-29T13:53:02.746Z,100
2023-03-29T13:54:42.506Z,100
2023-03-29T13:56:22.256Z,100
2023-03-29T13:58:02.035Z,100
2023-03-29T13:59:41.786Z,100
2023-03-29T14:01:21.577Z,100
2023-03-29T14:03:01.331Z,100
2023-03-29T14:04:41.102Z,100
2023-03-29T14:06:20.876Z,100
2023-03-29T14:08:00.647Z,100
2023-03-29T14:09:40.413Z,100
2023-03-29T14:11:20.170Z,100
2023-03-29T14:13:01.044Z,100
2023-03-29T14:14:39.717Z,100
2023-03-29T14:16:19.488Z,100
2023-03-29T14:17:59.283Z,100
2023-03-29T14:19:39.059Z,100
2023-03-29T14:21:18.796Z,100
2023-03-29T14:22:58.576Z,100
2023-03-29T14:24:38.350Z,100
2023-03-29T14:26:18.107Z,100
2023-03-29T14:27:57.896Z,100
2023-03-29T14:29:37.646Z,100
2023-03-29T14:31:17.430Z,100
2023-03-29T14:32:57.187Z,100
2023-03-29T14:34:36.959Z,100
2023-03-29T14:36:16.731Z,100
2023-03-29T14:37:56.497Z,100
2023-03-29T14:39:36.268Z,100
2023-03-29T14:41:16.039Z,100
2023-03-29T14:42:55.831Z,100
2023-03-29T14:44:35.586Z,100
2023-03-29T14:46:15.358Z,100
2023-03-29T14:47:55.131Z,100
2023-03-29T14:49:34.905Z,100
2023-03-29T14:51:14.659Z,100
2023-03-29T14:52:54.464Z,100
2023-03-29T14:54:34.215Z,100
2023-03-29T14:56:13.961Z,100
2023-03-29T14:57:53.743Z,100
2023-03-29T14:59:33.516Z,100
2023-03-29T15:01:13.312Z,100
2023-03-29T15:02:53.062Z,100
2023-03-29T15:04:32.834Z,100
2023-03-29T15:06:12.601Z,100
2023-03-29T15:07:52.370Z,100
2023-03-29T15:09:32.132Z,100
2023-03-29T15:11:11.906Z,100
2023-03-29T15:12:51.689Z,100
2023-03-29T15:14:31.446Z,100
2023-03-29T15:16:11.216Z,100
2023-03-29T15:17:51.008Z,100
2023-03-29T15:19:30.772Z,100
2023-03-29T15:21:10.533Z,100
2023-03-29T15:22:50.297Z,100
2023-03-29T15:24:30.075Z,100
2023-03-29T15:26:09.839Z,100
2023-03-29T15:27:49.659Z,100
2023-03-29T15:29:29.385Z,100
2023-03-29T15:31:09.163Z,100
2023-03-29T15:32:48.924Z,100
2023-03-29T15:34:28.698Z,100
2023-03-29T15:36:08.470Z,100
2023-03-29T15:37:48.232Z,100
2023-03-29T15:39:28.006Z,100
2023-03-29T15:41:07.774Z,100
2023-03-29T15:42:47.558Z,100
2023-03-29T15:44:27.310Z,100
2023-03-29T15:46:07.079Z,100
2023-03-29T15:47:46.932Z,100
2023-03-29T15:49:26.622Z,100
2023-03-29T15:51:06.391Z,100
2023-03-29T15:52:46.172Z,100
2023-03-29T15:54:25.970Z,100
2023-03-29T15:56:05.710Z,100
2023-03-29T15:57:45.500Z,100
2023-03-29T15:59:25.253Z,100
2023-03-29T16:01:05.032Z,100
2023-03-29T16:02:44.801Z,100
2023-03-29T16:04:24.615Z,100
2023-03-29T16:06:04.329Z,100
2023-03-29T16:07:44.109Z,100
2023-03-29T16:09:23.865Z,100
2023-03-29T16:11:03.653Z,100
2023-03-29T16:12:43.409Z,100
2023-03-29T16:14:23.187Z,100
2023-03-29T16:16:02.955Z,100
2023-03-29T16:17:42.738Z,100
2023-03-29T16:19:22.497Z,100
2023-03-29T16:21:02.254Z,100
2023-03-29T16:22:42.044Z,100
2023-03-29T16:24:21.798Z,100
2023-03-29T16:26:01.567Z,100
2023-03-29T16:27:41.347Z,100
2023-03-29T16:29:21.133Z,100
2023-03-29T16:31:00.879Z,100
2023-03-29T16:32:40.652Z,100
2023-03-29T16:34:20.428Z,100
2023-03-29T16:36:00.189Z,100
2023-03-29T16:37:39.972Z,100
2023-03-29T16:39:19.734Z,100
2023-03-29T16:40:59.501Z,100
2023-03-29T16:42:39.278Z,100
2023-03-29T16:44:19.045Z,100
2023-03-29T16:45:58.802Z,100
2023-03-29T16:47:38.579Z,100
2023-03-29T16:49:18.365Z,100
2023-03-29T16:50:58.114Z,100
2023-03-29T16:52:37.888Z,100
2023-03-29T16:54:17.664Z,100
2023-03-29T16:55:57.446Z,100
2023-03-29T16:57:37.209Z,100
2023-03-29T16:59:16.968Z,100
2023-03-29T17:00:56.741Z,100
2023-03-29T17:02:36.513Z,100
2023-03-29T17:04:16.294Z,100
2023-03-29T17:05:56.043Z,100
2023-03-29T17:07:35.855Z,100
2023-03-29T17:09:15.599Z,100
2023-03-29T17:10:55.593Z,100
2023-03-29T17:12:35.137Z,100
2023-03-29T17:14:14.902Z,100
2023-03-29T17:15:54.662Z,100
2023-03-29T17:17:34.430Z,100
2023-03-29T17:19:14.221Z,100
2023-03-29T17:20:53.972Z,100
2023-03-29T17:22:33.752Z,100
2023-03-29T17:24:13.501Z,100
2023-03-29T17:25:53.280Z,100
2023-03-29T17:27:33.028Z,100
2023-03-29T17:29:12.816Z,100
2023-03-29T17:30:52.577Z,100
2023-03-29T17:32:32.338Z,98
2023-03-29T17:34:12.107Z,97
2023-03-29T17:35:51.889Z,97
2023-03-29T17:37:31.642Z,96
2023-03-29T17:39:11.405Z,95
2023-03-29T17:40:51.180Z,95
2023-03-29T17:42:30.941Z,94
2023-03-29T17:44:10.775Z,93
2023-03-29T17:45:50.481Z,93
2023-03-29T17:47:30.243Z,92
2023-03-29T17:49:10.011Z,92
2023-03-29T17:50:49.797Z,91
2023-03-29T17:52:29.548Z,91
2023-03-29T17:54:09.334Z,90
2023-03-29T17:55:49.078Z,90
2023-03-29T17:57:28.848Z,90
2023-03-29T17:59:08.614Z,90
2023-03-29T18:00:48.390Z,89
2023-03-29T18:02:28.155Z,89
2023-03-29T18:04:07.918Z,88
2023-03-29T18:05:47.684Z,88
2023-03-29T18:07:27.471Z,87
2023-03-29T18:09:07.223Z,87
2023-03-29T18:10:46.991Z,87
2023-03-29T18:12:26.753Z,87
2023-03-29T18:14:06.524Z,86
2023-03-29T18:15:46.313Z,86
2023-03-29T18:17:26.073Z,85
2023-03-29T18:19:05.872Z,85
2023-03-29T18:20:45.605Z,85
2023-03-29T18:22:25.364Z,85
2023-03-29T18:24:05.143Z,85
2023-03-29T18:25:44.905Z,84
2023-03-29T18:27:24.675Z,84
2023-03-29T18:29:04.429Z,84
2023-03-29T18:30:44.200Z,84
2023-03-29T18:32:23.969Z,83
2023-03-29T18:34:03.745Z,83
2023-03-29T18:35:43.496Z,83
2023-03-29T18:37:23.275Z,82
2023-03-29T18:39:03.044Z,82
2023-03-29T18:40:42.808Z,82
2023-03-29T18:42:22.578Z,82
2023-03-29T18:44:02.353Z,82
2023-03-29T18:45:42.108Z,81
2023-03-29T18:47:21.877Z,81
2023-03-29T18:49:01.645Z,81
2023-03-29T18:50:41.417Z,81
2023-03-29T18:52:21.193Z,81
2023-03-29T18:54:00.935Z,81
2023-03-29T18:55:40.750Z,80
2023-03-29T18:57:20.497Z,80
2023-03-29T18:59:00.241Z,80
2023-03-29T19:00:40.026Z,80
2023-03-29T19:02:19.797Z,80
2023-03-29T19:03:59.553Z,80
2023-03-29T19:05:39.306Z,80
2023-03-29T19:07:19.083Z,79
2023-03-29T19:08:58.845Z,79
2023-03-29T19:10:38.620Z,79
2023-03-29T19:12:18.394Z,79
2023-03-29T19:13:58.148Z,79
2023-03-29T19:15:37.931Z,79
2023-03-29T19:17:17.692Z,79
2023-03-29T19:18:57.459Z,79
2023-03-29T19:20:37.237Z,78
2023-03-29T19:22:17.004Z,78
2023-03-29T19:23:56.810Z,78
2023-03-29T19:25:36.522Z,78
2023-03-29T19:27:16.297Z,78
2023-03-29T19:28:56.072Z,78
2023-03-29T19:30:35.854Z,78
2023-03-29T19:32:15.612Z,78
2023-03-29T19:33:55.380Z,78
2023-03-29T19:35:35.137Z,77
2023-03-29T19:37:14.915Z,77
2023-03-29T19:38:54.681Z,77
2023-03-29T19:40:34.456Z,77
2023-03-29T19:42:14.219Z,77
2023-03-29T19:43:53.986Z,77
2023-03-29T19:45:33.730Z,77
2023-03-29T19:47:13.531Z,77
2023-03-29T19:48:53.288Z,77
2023-03-29T19:50:33.037Z,77
2023-03-29T19:52:12.801Z,77
2023-03-29T19:53:52.568Z,77
2023-03-29T19:55:32.334Z,76
2023-03-29T19:57:12.109Z,76
2023-03-29T19:58:51.897Z,76
2023-03-29T20:00:31.628Z,76
2023-03-29T20:02:11.413Z,76
2023-03-29T20:03:51.173Z,76
2023-03-29T20:05:30.936Z,76
2023-03-29T20:07:10.706Z,76
2023-03-29T20:08:50.476Z,75
2023-03-29T20:10:30.243Z,76
2023-03-29T20:12:10.013Z,76
2023-03-29T20:13:49.785Z,76
2023-03-29T20:15:29.553Z,75
2023-03-29T20:17:09.313Z,75
2023-03-29T20:18:49.093Z,75
2023-03-29T20:20:28.848Z,75
2023-03-29T20:22:08.611Z,75
2023-03-29T20:23:48.379Z,75
2023-03-29T20:25:28.152Z,75
2023-03-29T20:27:07.933Z,75
2023-03-29T20:28:47.688Z,75
2023-03-29T20:30:27.436Z,75
2023-03-29T20:32:07.227Z,75
2023-03-29T20:33:46.985Z,75
2023-03-29T20:35:26.753Z,75
2023-03-29T20:37:06.514Z,75
2023-03-29T20:38:46.294Z,75
2023-03-29T20:40:26.075Z,75
2023-03-29T20:42:05.850Z,75
2023-03-29T20:43:45.586Z,75
2023-03-29T20:45:25.373Z,75
2023-03-29T20:47:05.134Z,75
2023-03-29T20:48:44.899Z,75
2023-03-29T20:50:24.671Z,75
2023-03-29T20:52:04.435Z,74
2023-03-29T20:53:44.217Z,75
2023-03-29T20:55:23.964Z,74
2023-03-29T20:57:03.723Z,74
2023-03-29T20:58:43.487Z,74
2023-03-29T21:00:23.256Z,74
2023-03-29T21:02:03.025Z,74
2023-03-29T21:03:42.790Z,74
2023-03-29T21:05:22.564Z,74
2023-03-29T21:07:02.342Z,74
2023-03-29T21:08:42.117Z,74
2023-03-29T21:10:21.877Z,74
2023-03-29T21:12:01.651Z,74
2023-03-29T21:13:41.394Z,74
2023-03-29T21:15:21.164Z,74
2023-03-29T21:17:00.936Z,74
2023-03-29T21:18:40.710Z,74
2023-03-29T21:20:20.483Z,74
2023-03-29T21:22:00.238Z,74
2023-03-29T21:23:40.006Z,74
2023-03-29T21:25:19.768Z,74
2023-03-29T21:26:59.533Z,74
2023-03-29T21:28:39.331Z,73
2023-03-29T21:30:19.087Z,74
2023-03-29T21:31:58.849Z,73
2023-03-29T21:33:38.606Z,73
2023-03-29T21:35:18.377Z,73
2023-03-29T21:36:58.140Z,73
2023-03-29T21:38:37.917Z,73
2023-03-29T21:40:17.684Z,73
2023-03-29T21:41:57.452Z,73
2023-03-29T21:43:37.204Z,73
2023-03-29T21:45:16.985Z,73
2023-03-29T21:46:56.750Z,73
2023-03-29T21:48:36.522Z,73
2023-03-29T21:50:16.293Z,73
2023-03-29T21:51:56.043Z,72
2023-03-29T21:53:35.813Z,73
2023-03-29T21:55:15.590Z,73
2023-03-29T21:56:55.366Z,73
2023-03-29T21:58:35.122Z,73
2023-03-29T22:00:14.900Z,73
2023-03-29T22:01:54.669Z,72
2023-03-29T22:03:34.446Z,72
2023-03-29T22:05:14.198Z,73
2023-03-29T22:06:53.955Z,72
2023-03-29T22:08:33.734Z,72
2023-03-29T22:10:13.514Z,72
2023-03-29T22:11:53.263Z,72
2023-03-29T22:13:33.036Z,72
2023-03-29T22:15:12.799Z,72
2023-03-29T22:16:52.602Z,72
2023-03-29T22:18:32.331Z,72
2023-03-29T22:20:12.098Z,72
2023-03-29T22:21:51.865Z,72
2023-03-29T22:23:31.645Z,72
2023-03-29T22:25:11.404Z,72
2023-03-29T22:26:51.176Z,72
2023-03-29T22:28:30.936Z,72
2023-03-29T22:30:10.710Z,72
2023-03-29T22:31:50.476Z,72
2023-03-29T22:33:30.228Z,71
2023-03-29T22:35:10.007Z,71
2023-03-29T22:36:49.765Z,72
2023-03-29T22:38:29.588Z,71
2023-03-29T22:40:09.305Z,72
2023-03-29T22:41:49.085Z,71
2023-03-29T22:43:28.841Z,71
2023-03-29T22:45:08.658Z,71
2023-03-29T22:46:48.376Z,71
2023-03-29T22:48:28.143Z,71
2023-03-29T22:50:07.903Z,71
2023-03-29T22:51:47.683Z,71
2023-03-29T22:53:27.453Z,71
2023-03-29T22:55:07.212Z,71
2023-03-29T22:56:46.969Z,71
2023-03-29T22:58:26.738Z,71
2023-03-29T23:00:06.524Z,71
2023-03-29T23:01:46.290Z,71
2023-03-29T23:03:26.056Z,71
2023-03-29T23:05:05.825Z,71
2023-03-29T23:07:22.146Z,71
2023-03-29T23:08:25.374Z,71
2023-03-29T23:10:05.127Z,71
2023-03-29T23:11:44.884Z,71
2023-03-29T23:13:24.655Z,71
2023-03-29T23:15:04.429Z,71
2023-03-29T23:16:44.188Z,70
2023-03-29T23:18:23.966Z,70
2023-03-29T23:20:03.717Z,70
2023-03-29T23:21:43.486Z,70
2023-03-29T23:23:23.267Z,70
2023-03-29T23:25:03.020Z,70